Time;durP1;ratioP1;P1;durP2;ratioP2;P2;SDS_P1;SDS_P2;PMS_P1;PMS_P2;Temp;Humidity;BMP_temperature;BMP_pressure;BME280_temperature;BME280_humidity;BME280_pressure;Samples;Min_cycle;Max_cycle;Signal;HPM_P1;HPM_P2
2021/05/25 00:01:31;;;;;;;4.83;2.15;;;;;;;21.31;54.60;100446.70;1806855;79;21039;-67
2021/05/25 00:03:57;;;;;;;2.98;2.27;;;;;;;21.31;54.74;100448.05;1808457;79;21005;-66
2021/05/25 00:06:24;;;;;;;3.72;2.20;;;;;;;21.30;54.69;100457.19;1810332;79;21040;-66
2021/05/25 00:08:51;;;;;;;4.72;2.70;;;;;;;21.29;54.47;100454.20;1816288;79;21016;-66
2021/05/25 00:11:18;;;;;;;3.22;2.15;;;;;;;21.28;54.34;100457.41;1744551;82;21051;-66
2021/05/25 00:13:44;;;;;;;2.58;2.08;;;;;;;21.28;54.28;100457.94;1744656;82;21104;-66
2021/05/25 00:16:11;;;;;;;3.92;2.37;;;;;;;21.25;54.26;100459.22;1751139;81;21582;-67
2021/05/25 00:18:38;;;;;;;3.12;1.90;;;;;;;21.24;54.31;100451.33;1744133;81;21075;-66
2021/05/25 00:21:05;;;;;;;3.10;2.08;;;;;;;21.23;54.25;100455.06;1746719;81;21075;-66
2021/05/25 00:23:31;;;;;;;4.62;2.33;;;;;;;21.21;54.16;100458.02;1782779;79;21096;-66
2021/05/25 00:25:58;;;;;;;2.85;2.12;;;;;;;21.21;54.13;100453.96;1802063;79;21052;-67
2021/05/25 00:28:24;;;;;;;6.50;2.80;;;;;;;21.20;54.08;100450.94;1797285;79;21028;-66
2021/05/25 00:30:51;;;;;;;3.27;2.00;;;;;;;21.19;54.02;100450.66;1785214;79;21095;-65
2021/05/25 00:33:17;;;;;;;6.40;2.70;;;;;;;21.19;54.05;100456.05;1781167;79;21083;-65
2021/05/25 00:35:44;;;;;;;4.75;2.70;;;;;;;21.18;54.00;100452.50;1792826;79;21791;-67
2021/05/25 00:38:11;;;;;;;5.35;2.15;;;;;;;21.18;53.90;100458.44;1785328;78;21587;-67
2021/05/25 00:40:39;;;;;;;4.78;2.20;;;;;;;21.16;53.90;100458.66;1777311;78;21047;-67
2021/05/25 00:43:06;;;;;;;7.47;3.40;;;;;;;21.15;53.85;100458.37;1778865;79;21270;-65
2021/05/25 00:45:33;;;;;;;4.90;2.95;;;;;;;21.14;53.81;100460.75;1804386;79;21056;-68
2021/05/25 00:47:59;;;;;;;7.08;3.08;;;;;;;21.14;53.71;100461.28;1804094;79;21075;-67
2021/05/25 00:50:28;;;;;;;4.95;2.40;;;;;;;21.12;53.70;100465.55;1805954;79;21060;-67
2021/05/25 00:53:01;;;;;;;5.22;3.10;;;;;;;21.11;53.58;100458.51;1807632;79;21595;-66
2021/05/25 00:55:30;;;;;;;6.00;3.10;;;;;;;21.11;53.57;100465.77;1794027;78;21079;-66
2021/05/25 00:57:57;;;;;;;5.80;2.90;;;;;;;21.10;53.53;100469.53;1805054;78;21115;-67
2021/05/25 01:00:43;;;;;;;4.97;2.42;;;;;;;21.09;53.55;100465.16;1796320;78;22042;-67
2021/05/25 01:03:11;;;;;;;4.83;2.65;;;;;;;21.09;53.64;100463.80;1795068;79;21531;-67
2021/05/25 01:05:39;;;;;;;4.65;2.77;;;;;;;21.08;53.79;100467.57;1803502;79;21535;-67
2021/05/25 01:08:06;;;;;;;5.50;2.92;;;;;;;21.08;53.73;100470.27;1799678;79;21068;-67
2021/05/25 01:10:37;;;;;;;5.80;3.08;;;;;;;21.07;53.59;100474.83;1769181;79;21102;-67
2021/05/25 01:13:12;;;;;;;6.17;3.60;;;;;;;21.08;53.41;100466.22;1800051;79;21086;-66
2021/05/25 01:15:34;;;;;;;8.90;3.65;;;;;;;21.07;53.24;100470.77;1801576;79;21059;-68
2021/05/25 01:18:02;;;;;;;8.65;3.47;;;;;;;21.07;53.11;100468.60;1798585;79;21036;-68
2021/05/25 01:20:30;;;;;;;8.33;3.22;;;;;;;21.07;53.26;100466.72;1793262;79;21606;-67
2021/05/25 01:22:57;;;;;;;7.90;3.92;;;;;;;21.05;53.12;100462.06;1806076;79;21087;-67
2021/05/25 01:25:24;;;;;;;10.32;3.67;;;;;;;21.06;53.17;100460.21;1785322;79;21156;-66
2021/05/25 01:27:57;;;;;;;8.95;3.52;;;;;;;21.05;53.17;100458.02;1802056;79;21111;-67
2021/05/25 01:30:28;;;;;;;9.95;3.47;;;;;;;21.05;53.11;100457.19;1788390;79;21097;-67
2021/05/25 01:32:55;;;;;;;9.33;3.87;;;;;;;21.05;53.03;100453.14;1793315;79;21638;-68
2021/05/25 01:35:23;;;;;;;13.10;3.75;;;;;;;21.03;52.93;100455.23;1777703;79;21011;-67
2021/05/25 01:37:50;;;;;;;11.43;4.08;;;;;;;21.01;53.01;100458.15;1794462;79;21663;-68
2021/05/25 01:40:17;;;;;;;8.53;3.35;;;;;;;20.99;53.01;100462.95;1802820;79;21616;-68
2021/05/25 01:42:43;;;;;;;9.95;3.30;;;;;;;20.99;52.99;100462.95;1799445;79;21114;-67
2021/05/25 01:45:14;;;;;;;6.67;4.25;;;;;;;20.97;52.96;100465.86;1803249;79;21028;-69
2021/05/25 01:47:42;;;;;;;9.03;3.92;;;;;;;20.96;52.98;100465.57;1740100;81;21059;-68
2021/05/25 01:50:11;;;;;;;10.00;4.10;;;;;;;20.96;52.83;100463.41;1799803;78;21082;-67
2021/05/25 01:52:55;;;;;;;7.83;3.75;;;;;;;20.94;52.78;100469.55;1790028;79;21629;-69
2021/05/25 01:55:47;;;;;;;8.80;3.55;;;;;;;20.93;52.79;100466.53;1780926;79;21095;-68
2021/05/25 01:58:24;;;;;;;10.13;3.75;;;;;;;20.90;52.82;100457.50;1790090;79;21051;-68
2021/05/25 02:00:57;;;;;;;9.65;4.10;;;;;;;20.88;52.81;100463.64;1800613;79;21051;-68
2021/05/25 02:03:23;;;;;;;9.25;3.80;;;;;;;20.87;52.84;100462.01;1795827;79;21071;-68
2021/05/25 02:05:50;;;;;;;7.80;3.67;;;;;;;20.85;52.72;100467.62;1793803;79;21109;-67
2021/05/25 02:08:17;;;;;;;10.30;3.75;;;;;;;20.84;52.80;100465.95;1801093;79;21028;-68
2021/05/25 02:10:51;;;;;;;8.68;4.10;;;;;;;20.84;52.71;100470.00;1805944;79;21591;-69
2021/05/25 02:13:23;;;;;;;8.05;4.92;;;;;;;20.84;52.66;100474.58;1795073;79;21606;-67
2021/05/25 02:15:52;;;;;;;8.43;3.83;;;;;;;20.82;52.68;100470.74;1801970;78;21152;-68
2021/05/25 02:18:23;;;;;;;6.53;3.47;;;;;;;20.80;52.68;100470.98;1800137;79;21041;-67
2021/05/25 02:20:52;;;;;;;7.33;3.55;;;;;;;20.81;52.63;100469.11;1800595;78;21032;-66
2021/05/25 02:23:19;;;;;;;7.03;3.40;;;;;;;20.81;52.54;100469.11;1788695;79;21073;-67
2021/05/25 02:25:46;;;;;;;5.22;3.45;;;;;;;20.81;52.58;100468.58;1809337;78;21196;-66
2021/05/25 02:28:13;;;;;;;7.30;3.27;;;;;;;20.81;52.49;100471.80;1804120;78;21086;-66
2021/05/25 02:30:41;;;;;;;6.40;3.42;;;;;;;20.81;52.48;100480.72;1802248;79;21055;-67
2021/05/25 02:33:10;;;;;;;5.72;3.40;;;;;;;20.81;52.34;100474.50;1808421;78;21075;-67
2021/05/25 02:35:38;;;;;;;7.95;3.12;;;;;;;20.81;52.30;100477.20;1795083;79;21049;-67
2021/05/25 02:38:06;;;;;;;9.40;4.10;;;;;;;20.80;52.28;100479.08;1799979;79;21024;-67
2021/05/25 02:40:34;;;;;;;10.45;3.98;;;;;;;20.80;52.23;100476.39;1801899;79;21107;-67
2021/05/25 02:43:00;;;;;;;7.22;3.25;;;;;;;20.81;52.23;100477.20;1786650;79;21152;-67
2021/05/25 02:45:27;;;;;;;6.83;3.20;;;;;;;20.79;52.13;100482.81;1804926;79;21594;-68
2021/05/25 02:47:54;;;;;;;6.85;3.08;;;;;;;20.78;52.17;100478.48;1739196;81;21555;-67
2021/05/25 02:50:21;;;;;;;6.08;3.35;;;;;;;20.79;52.22;100475.25;1792523;79;21084;-68
2021/05/25 02:52:50;;;;;;;4.58;3.20;;;;;;;20.79;52.18;100479.30;1799046;78;21168;-67
2021/05/25 02:55:22;;;;;;;4.65;2.58;;;;;;;20.80;52.08;100484.98;1727319;81;21080;-68
2021/05/25 02:57:48;;;;;;;5.73;2.80;;;;;;;20.80;52.09;100479.08;1751685;81;21087;-66
2021/05/25 03:00:18;;;;;;;4.58;2.65;;;;;;;20.80;52.06;100483.64;1760425;81;21123;-68
2021/05/25 03:02:45;;;;;;;5.53;2.62;;;;;;;20.81;52.01;100481.25;1731295;82;21072;-66
2021/05/25 03:05:13;;;;;;;3.47;2.42;;;;;;;20.82;52.04;100490.99;1755246;81;21130;-66
2021/05/25 03:07:39;;;;;;;8.88;7.40;;;;;;;20.81;51.90;100484.77;1731478;81;21039;-66
2021/05/25 03:10:09;;;;;;;6.72;4.62;;;;;;;20.83;51.81;100489.14;1704076;81;21603;-66
2021/05/25 03:12:36;;;;;;;8.23;6.15;;;;;;;20.85;51.70;100493.80;1735834;82;21072;-67
2021/05/25 03:15:05;;;;;;;7.65;4.97;;;;;;;20.84;51.77;100491.60;1806822;79;21158;-68
2021/05/25 03:17:32;;;;;;;7.85;4.28;;;;;;;20.86;51.80;100494.95;1791139;79;21134;-66
2021/05/25 03:19:59;;;;;;;5.85;3.83;;;;;;;20.86;51.64;100485.48;1807183;79;21120;-66
2021/05/25 03:22:26;;;;;;;7.05;5.62;;;;;;;20.88;51.63;100498.75;1807139;79;21582;-68
2021/05/25 03:24:52;;;;;;;7.72;5.53;;;;;;;20.89;51.62;100495.84;1806339;79;21067;-68
2021/05/25 03:27:19;;;;;;;7.50;5.75;;;;;;;20.90;51.57;100496.16;1768817;79;21107;-67
2021/05/25 03:29:45;;;;;;;6.28;4.70;;;;;;;20.91;51.52;100490.23;1732899;81;21754;-68
2021/05/25 03:32:12;;;;;;;6.87;4.03;;;;;;;20.93;51.46;100501.11;1792058;79;21019;-67
2021/05/25 03:34:38;;;;;;;6.53;4.35;;;;;;;20.94;51.29;100498.73;1804391;78;21095;-68
2021/05/25 03:37:05;;;;;;;5.35;3.72;;;;;;;20.96;51.24;100502.03;1819630;78;21107;-68
2021/05/25 03:39:31;;;;;;;6.40;3.60;;;;;;;20.97;51.21;100503.67;1811685;78;21515;-68
2021/05/25 03:41:59;;;;;;;4.33;2.90;;;;;;;20.99;51.20;100500.23;1806697;78;21125;-68
2021/05/25 03:44:27;;;;;;;5.08;3.10;;;;;;;21.00;51.03;100499.20;1807728;78;21574;-68
2021/05/25 03:46:53;;;;;;;6.35;3.08;;;;;;;21.04;50.98;100502.83;1816865;78;21020;-67
2021/05/25 03:49:20;;;;;;;5.30;3.02;;;;;;;21.06;50.86;100502.08;1778136;79;21114;-68
2021/05/25 03:51:47;;;;;;;4.50;2.75;;;;;;;21.09;50.84;100501.63;1767685;79;21096;-67
2021/05/25 03:54:20;;;;;;;5.78;3.08;;;;;;;21.12;50.70;100504.72;1769976;79;21124;-67
2021/05/25 03:59:29;;;;;;;3.37;2.40;;;;;;;21.19;50.44;100502.80;1792351;79;21045;-68
2021/05/25 04:01:57;;;;;;;7.47;2.60;;;;;;;21.21;50.34;100493.14;1793715;79;21095;-67
2021/05/25 04:04:24;;;;;;;4.40;2.50;;;;;;;21.25;50.30;100492.14;1766416;79;22658;-68
2021/05/25 04:06:52;;;;;;;4.05;2.33;;;;;;;21.28;50.26;100493.89;1778595;79;21195;-68
2021/05/25 04:09:20;;;;;;;3.95;2.50;;;;;;;21.28;50.23;100489.84;1780335;79;21064;-67
2021/05/25 04:11:48;;;;;;;4.97;3.00;;;;;;;21.36;50.12;100492.28;1774957;79;21021;-69
2021/05/25 04:14:16;;;;;;;6.65;2.52;;;;;;;21.42;49.93;100487.84;1776149;79;21594;-69
2021/05/25 04:16:43;;;;;;;6.17;2.37;;;;;;;21.50;49.85;100490.82;1787775;79;21539;-68
2021/05/25 04:19:11;;;;;;;4.92;2.55;;;;;;;21.55;49.71;100489.11;1773568;79;21084;-67
2021/05/25 04:21:38;;;;;;;5.65;2.30;;;;;;;21.60;49.70;100485.76;1783473;79;21020;-69
2021/05/25 04:24:06;;;;;;;5.45;2.33;;;;;;;21.66;49.53;100484.86;1786814;79;21061;-68
2021/05/25 04:26:33;;;;;;;5.20;2.33;;;;;;;21.70;49.46;100487.95;1769332;79;21115;-67
2021/05/25 04:28:59;;;;;;;3.80;2.90;;;;;;;21.75;49.41;100486.23;1782562;79;21069;-67
2021/05/25 04:31:26;;;;;;;4.60;2.52;;;;;;;21.80;49.26;100489.60;1774428;79;21218;-69
2021/05/25 04:33:52;;;;;;;5.95;2.12;;;;;;;21.85;49.28;100480.83;1790293;79;21603;-67
2021/05/25 04:36:19;;;;;;;3.50;2.50;;;;;;;21.90;49.10;100483.14;1791661;79;21603;-67
2021/05/25 04:38:46;;;;;;;4.50;2.15;;;;;;;21.95;49.00;100486.54;1755501;81;21056;-68
2021/05/25 04:41:12;;;;;;;4.12;2.30;;;;;;;21.99;48.87;100488.56;1806933;79;21075;-70
2021/05/25 04:43:39;;;;;;;5.10;2.20;;;;;;;22.07;48.80;100486.61;1778887;79;22243;-69
2021/05/25 04:46:06;;;;;;;5.37;2.47;;;;;;;22.13;48.75;100481.64;1799526;79;21044;-69
2021/05/25 04:48:32;;;;;;;3.35;2.30;;;;;;;22.19;48.60;100483.44;1799922;79;21025;-70
2021/05/25 04:50:58;;;;;;;3.40;2.02;;;;;;;22.23;48.52;100475.16;1790631;79;21115;-70
2021/05/25 04:53:25;;;;;;;4.47;2.42;;;;;;;22.29;48.31;100476.16;1798320;78;21122;-69
2021/05/25 04:55:52;;;;;;;5.55;2.52;;;;;;;22.33;48.26;100476.03;1801359;79;21484;-70
2021/05/25 04:58:18;;;;;;;6.47;2.30;;;;;;;22.38;47.92;100476.16;1806547;78;21043;-68
2021/05/25 05:00:45;;;;;;;5.50;2.70;;;;;;;22.42;47.86;100468.41;1801117;78;21976;-69
2021/05/25 05:03:12;;;;;;;4.37;2.00;;;;;;;22.47;47.74;100469.38;1788509;79;21074;-69
2021/05/25 05:05:38;;;;;;;4.67;2.25;;;;;;;22.51;47.63;100465.16;1783798;79;21643;-69
2021/05/25 05:08:06;;;;;;;3.12;1.80;;;;;;;22.55;47.54;100456.88;1797914;79;21095;-69
2021/05/25 05:10:32;;;;;;;4.72;2.22;;;;;;;22.60;47.41;100460.27;1800628;78;21073;-70
2021/05/25 05:13:06;;;;;;;4.87;2.05;;;;;;;22.65;46.97;100464.44;1791674;79;21077;-68
2021/05/25 05:15:30;;;;;;;3.15;2.33;;;;;;;22.69;46.79;100468.87;1800474;78;21103;-68
2021/05/25 05:17:56;;;;;;;4.25;2.02;;;;;;;22.74;46.68;100467.13;1798889;79;21123;-69
2021/05/25 05:20:23;;;;;;;3.77;2.15;;;;;;;22.78;46.45;100463.43;1804534;78;21176;-69
2021/05/25 05:22:49;;;;;;;4.35;1.90;;;;;;;22.84;46.35;100469.81;1796092;79;21619;-70
2021/05/25 05:25:16;;;;;;;4.45;2.00;;;;;;;22.86;46.28;100465.80;1810368;79;21551;-69
2021/05/25 05:27:43;;;;;;;2.67;1.82;;;;;;;22.92;46.20;100472.17;1800329;78;21075;-69
2021/05/25 05:30:11;;;;;;;5.42;3.55;;;;;;;22.95;46.08;100465.77;1799282;79;21076;-69
2021/05/25 05:32:38;;;;;;;6.37;3.02;;;;;;;22.99;45.96;100472.91;1805562;79;21644;-68
2021/05/25 05:35:06;;;;;;;5.85;2.83;;;;;;;23.04;45.88;100481.71;1801959;79;21016;-68
2021/05/25 05:37:33;;;;;;;5.80;2.70;;;;;;;23.07;45.69;100479.37;1802588;79;21187;-70
2021/05/25 05:39:59;;;;;;;4.50;2.30;;;;;;;23.10;45.48;100483.48;1737719;81;21063;-71
2021/05/25 05:42:26;;;;;;;5.08;2.67;;;;;;;23.13;45.23;100472.20;1765093;81;21051;-69
2021/05/25 05:44:52;;;;;;;2.52;1.52;;;;;;;23.16;45.07;100472.56;1751922;81;21094;-69
2021/05/25 05:47:19;;;;;;;4.28;2.40;;;;;;;23.21;44.83;100473.73;1798591;78;21650;-65
2021/05/25 05:49:45;;;;;;;4.33;2.67;;;;;;;23.22;45.72;100464.02;1799617;79;21581;-68
2021/05/25 05:52:11;;;;;;;9.30;3.98;;;;;;;23.26;49.76;100467.91;1793362;79;21064;-66
2021/05/25 05:54:38;;;;;;;5.40;3.20;;;;;;;23.32;53.33;100464.25;1806389;79;21025;-66
2021/05/25 05:57:06;;;;;;;5.08;2.70;;;;;;;23.40;52.70;100452.77;1799555;79;23074;-67
2021/05/25 05:59:33;;;;;;;4.58;2.80;;;;;;;23.46;50.85;100446.41;1793611;79;21023;-66
2021/05/25 06:01:59;;;;;;;4.95;2.85;;;;;;;23.51;50.07;100440.57;1739079;82;21116;-66
2021/05/25 06:04:27;;;;;;;4.87;2.30;;;;;;;23.56;49.82;100439.84;1749835;81;21602;-65
2021/05/25 06:06:53;;;;;;;4.22;2.65;;;;;;;23.63;49.30;100437.03;1742710;81;21102;-67
2021/05/25 06:09:20;;;;;;;4.22;2.50;;;;;;;23.67;48.92;100434.95;1737272;81;21067;-64
2021/05/25 06:11:52;;;;;;;6.17;2.92;;;;;;;23.72;48.44;100445.92;1759099;81;21087;-65
2021/05/25 06:14:15;;;;;;;4.37;2.45;;;;;;;23.75;48.24;100442.71;1742436;81;21256;-65
2021/05/25 06:16:43;;;;;;;4.20;2.70;;;;;;;23.81;47.79;100433.37;1748695;81;21046;-66
2021/05/25 06:19:09;;;;;;;4.00;2.25;;;;;;;23.84;47.67;100441.05;1792607;78;21052;-66
2021/05/25 06:21:36;;;;;;;5.22;2.60;;;;;;;23.87;47.17;100441.36;1803892;78;21119;-65
2021/05/25 06:24:03;;;;;;;3.35;2.30;;;;;;;23.91;47.04;100430.86;1800633;79;21145;-64
2021/05/25 06:26:29;;;;;;;4.25;2.75;;;;;;;23.93;46.70;100431.44;1797151;79;21074;-67
2021/05/25 06:28:55;;;;;;;3.80;2.50;;;;;;;23.97;46.50;100422.30;1806963;79;21072;-67
2021/05/25 06:31:22;;;;;;;5.05;2.45;;;;;;;24.00;46.33;100428.61;1795196;78;21016;-68
2021/05/25 06:33:48;;;;;;;4.42;2.50;;;;;;;24.03;47.02;100427.60;1803747;79;21776;-67
2021/05/25 06:36:16;;;;;;;3.85;2.30;;;;;;;24.09;47.63;100428.53;1818964;78;21043;-67
2021/05/25 06:38:42;;;;;;;4.62;2.35;;;;;;;24.12;47.42;100417.98;1817635;78;21599;-68
2021/05/25 06:41:09;;;;;;;5.15;2.17;;;;;;;24.17;47.12;100416.47;1814694;78;21079;-69
2021/05/25 06:43:36;;;;;;;5.40;2.25;;;;;;;24.21;47.42;100418.45;1808047;78;21095;-69
2021/05/25 06:46:02;;;;;;;5.42;2.35;;;;;;;24.25;47.58;100416.89;1818285;78;21113;-67
2021/05/25 06:48:29;;;;;;;4.72;2.25;;;;;;;24.29;46.99;100414.52;1817165;78;21031;-76
2021/05/25 06:50:55;;;;;;;5.33;2.40;;;;;;;24.32;47.12;100409.44;1823280;78;21020;-74
2021/05/25 06:53:22;;;;;;;2.55;2.25;;;;;;;24.36;46.71;100423.86;1782005;79;21020;-75
2021/05/25 06:55:48;;;;;;;2.77;2.15;;;;;;;24.38;46.42;100430.72;1753615;81;21071;-75
2021/05/25 06:58:14;;;;;;;4.78;2.17;;;;;;;24.40;46.26;100423.16;1785583;79;21671;-75
2021/05/25 07:00:41;;;;;;;3.98;2.45;;;;;;;24.41;45.97;100423.43;1791941;79;21076;-69
2021/05/25 07:03:07;;;;;;;6.83;2.50;;;;;;;24.42;45.37;100440.03;1791974;79;21519;-74
2021/05/25 07:05:33;;;;;;;3.75;2.30;;;;;;;24.41;45.20;100434.29;1791766;79;21571;-76
2021/05/25 07:08:01;;;;;;;3.70;2.35;;;;;;;24.42;45.17;100433.78;1799092;79;21056;-77
2021/05/25 07:10:27;;;;;;;5.60;2.25;;;;;;;24.40;45.09;100429.94;1785237;79;21083;-77
2021/05/25 07:12:56;;;;;;;6.20;2.22;;;;;;;24.41;45.26;100425.33;1790567;79;21103;-74
2021/05/25 07:15:22;;;;;;;2.60;2.15;;;;;;;24.41;45.26;100426.69;1791112;79;21155;-71
2021/05/25 07:17:55;;;;;;;3.47;2.10;;;;;;;24.41;45.23;100431.58;1794857;79;21068;-73
2021/05/25 07:20:19;;;;;;;5.90;2.00;;;;;;;24.42;45.04;100416.95;1803354;79;21108;-75
2021/05/25 07:22:51;;;;;;;3.30;2.05;;;;;;;24.44;45.28;100424.85;1790793;79;21114;-75
2021/05/25 07:25:14;;;;;;;5.78;2.00;;;;;;;24.45;44.90;100425.95;1801169;79;21119;-74
2021/05/25 07:27:40;;;;;;;3.17;2.10;;;;;;;24.46;44.97;100425.44;1795763;79;21043;-76
2021/05/25 07:30:09;;;;;;;2.33;2.08;;;;;;;24.47;45.47;100425.20;1785698;79;21056;-75
2021/05/25 07:32:35;;;;;;;4.08;2.20;;;;;;;24.50;45.64;100432.84;1795984;79;21031;-75
2021/05/25 07:35:05;;;;;;;4.08;2.22;;;;;;;24.54;45.66;100431.85;1788702;79;21875;-73
2021/05/25 07:37:33;;;;;;;3.52;2.27;;;;;;;24.58;45.75;100418.61;1791107;79;21028;-73
2021/05/25 07:39:59;;;;;;;3.35;2.37;;;;;;;24.61;45.73;100409.95;1755420;81;21557;-72
2021/05/25 07:42:27;;;;;;;3.75;2.10;;;;;;;24.65;45.72;100413.86;1757105;81;21091;-73
2021/05/25 07:44:54;;;;;;;3.42;2.25;;;;;;;24.67;45.65;100411.72;1761563;81;21055;-74
2021/05/25 07:47:20;;;;;;;5.47;2.05;;;;;;;24.71;45.52;100404.72;1758119;81;21685;-71
2021/05/25 07:50:45;;;;;;;4.08;2.05;;;;;;;24.80;45.66;100409.20;1870329;74;22733;-70
2021/05/25 07:53:12;;;;;;;4.70;2.25;;;;;;;24.79;45.61;100413.00;1839970;75;21541;-70
2021/05/25 07:55:38;;;;;;;3.62;2.20;;;;;;;24.83;45.52;100415.52;1832405;75;21090;-71
2021/05/25 07:58:05;;;;;;;3.77;2.10;;;;;;;24.85;45.32;100407.39;1839115;75;21541;-74
2021/05/25 08:00:32;;;;;;;1.98;1.77;;;;;;;24.87;45.12;100405.25;1814523;77;21017;-72
2021/05/25 08:02:59;;;;;;;2.92;2.20;;;;;;;24.91;44.77;100393.36;1831048;76;20987;-73
2021/05/25 08:05:28;;;;;;;3.60;2.35;;;;;;;24.92;44.70;100398.55;1793140;78;21043;-72
2021/05/25 08:07:57;;;;;;;2.58;2.37;;;;;;;24.95;45.05;100402.66;1770323;79;21129;-71
2021/05/25 08:10:25;;;;;;;6.47;2.40;;;;;;;24.97;45.18;100407.85;1782339;78;20965;-73
2021/05/25 08:12:52;;;;;;;5.03;2.50;;;;;;;24.98;45.39;100398.09;1786297;79;21632;-73
2021/05/25 08:15:24;;;;;;;2.62;2.00;;;;;;;25.01;45.50;100400.84;1786936;78;21018;-73
2021/05/25 08:18:05;;;;;;;4.65;2.60;;;;;;;25.04;45.61;100384.05;1793322;78;21655;-70
2021/05/25 08:20:27;;;;;;;3.77;2.15;;;;;;;25.07;45.64;100382.18;1788641;78;21101;-72
2021/05/25 08:22:57;;;;;;;3.50;2.45;;;;;;;25.08;45.80;100383.30;1794704;78;21507;-70
2021/05/25 08:25:29;;;;;;;3.62;2.08;;;;;;;25.11;45.83;100381.97;1798332;78;21024;-69
2021/05/25 08:27:57;;;;;;;5.62;2.27;;;;;;;25.13;45.88;100373.05;1789987;78;21614;-69
2021/05/25 08:30:26;;;;;;;5.17;1.82;;;;;;;25.15;45.95;100382.30;1790493;78;21026;-71
2021/05/25 08:32:52;;;;;;;3.35;2.05;;;;;;;25.18;46.07;100379.09;1794596;78;21081;-72
2021/05/25 08:35:20;;;;;;;6.25;2.27;;;;;;;25.20;46.01;100377.76;1787629;78;21038;-70
2021/05/25 08:37:56;;;;;;;5.12;2.10;;;;;;;25.23;45.86;100372.41;1783590;78;21567;-71
2021/05/25 08:40:23;;;;;;;6.03;2.12;;;;;;;25.26;45.79;100370.53;1782750;78;21555;-70
2021/05/25 08:42:50;;;;;;;6.12;2.05;;;;;;;25.28;45.47;100363.80;1777981;79;21061;-69
2021/05/25 08:45:17;;;;;;;4.20;2.05;;;;;;;25.30;45.46;100365.72;1785870;78;21121;-70
2021/05/25 08:47:44;;;;;;;4.12;1.98;;;;;;;25.34;45.76;100380.97;1784635;78;21077;-71
2021/05/25 08:50:14;;;;;;;3.10;2.33;;;;;;;25.38;45.72;100366.34;1772174;78;21063;-70
2021/05/25 08:52:41;;;;;;;2.87;1.90;;;;;;;25.41;45.04;100368.03;1753882;80;21413;-73
2021/05/25 08:55:09;;;;;;;3.87;2.45;;;;;;;25.45;44.89;100357.47;1764553;80;21134;-76
2021/05/25 08:57:36;;;;;;;3.47;2.22;;;;;;;25.47;44.33;100358.86;1758185;80;21668;-76
2021/05/25 09:00:07;;;;;;;3.83;2.02;;;;;;;25.52;44.26;100363.56;1754386;80;21174;-71
2021/05/25 09:02:34;;;;;;;2.80;2.10;;;;;;;25.56;44.43;100368.78;1760176;80;21043;-73
2021/05/25 09:05:15;;;;;;;2.22;1.87;;;;;;;25.59;44.57;100362.81;1754789;80;21071;-70
2021/05/25 09:07:58;;;;;;;2.12;1.75;;;;;;;25.63;44.50;100361.26;1760023;80;21578;-73
2021/05/25 09:10:41;;;;;;;3.42;2.00;;;;;;;25.67;44.30;100367.84;1750995;80;21139;-71
2021/05/25 09:13:20;;;;;;;2.00;1.90;;;;;;;25.71;44.37;100383.13;1753425;80;21047;-70
2021/05/25 09:15:48;;;;;;;3.47;2.05;;;;;;;25.75;44.33;100364.36;1760157;79;21038;-71
2021/05/25 09:18:21;;;;;;;3.00;2.10;;;;;;;25.80;44.13;100361.72;1777782;79;21076;-71
2021/05/25 09:20:52;;;;;;;2.60;1.82;;;;;;;25.84;43.68;100369.10;1796056;78;26991;-70
2021/05/25 09:23:23;;;;;;;2.47;2.10;;;;;;;25.88;43.49;100362.62;1801457;77;21040;-70
2021/05/25 09:26:05;;;;;;;4.03;2.15;;;;;;;25.93;43.69;100368.16;1771273;79;21078;-70
2021/05/25 09:28:34;;;;;;;4.42;2.15;;;;;;;25.99;44.19;100368.50;1729784;80;21042;-72
2021/05/25 09:31:03;;;;;;;2.02;1.90;;;;;;;26.05;44.60;100363.94;1773778;78;21054;-77
2021/05/25 09:33:32;;;;;;;2.90;1.95;;;;;;;26.11;44.86;100356.09;1794207;78;21071;-80
2021/05/25 09:36:10;;;;;;;3.15;2.10;;;;;;;26.15;45.02;100360.50;1795973;76;21602;-79
2021/05/25 09:38:38;;;;;;;2.30;1.90;;;;;;;26.20;45.06;100363.28;1803178;78;22169;-77
2021/05/25 09:41:05;;;;;;;2.08;1.82;;;;;;;26.23;45.18;100351.34;1800004;78;21281;-79
2021/05/25 09:43:33;;;;;;;3.98;2.00;;;;;;;26.26;45.33;100349.45;1803841;78;21087;-78
2021/05/25 09:46:10;;;;;;;4.17;1.80;;;;;;;26.32;45.44;100343.52;1776762;78;21502;-79
2021/05/25 09:48:52;;;;;;;2.58;1.85;;;;;;;26.37;45.44;100326.41;1785169;78;21007;-78
2021/05/25 09:51:30;;;;;;;2.57;1.70;;;;;;;26.40;45.46;100332.14;1827564;76;21162;-76
2021/05/25 09:53:58;;;;;;;2.90;2.00;;;;;;;26.44;45.48;100332.45;1821682;76;21574;-70
2021/05/25 09:56:30;;;;;;;1.80;1.67;;;;;;;26.47;45.52;100334.12;1808464;77;21071;-77
2021/05/25 09:58:59;;;;;;;3.47;1.82;;;;;;;26.52;45.42;100336.08;1825972;77;21570;-71
2021/05/25 10:01:36;;;;;;;2.37;1.70;;;;;;;26.56;45.32;100341.80;1788040;77;21091;-71
2021/05/25 10:04:13;;;;;;;1.85;1.70;;;;;;;26.59;45.13;100330.44;1831372;76;21039;-69
2021/05/25 10:06:43;;;;;;;2.70;1.72;;;;;;;26.63;44.98;100323.38;1788856;77;21091;-70
2021/05/25 10:09:12;;;;;;;2.30;1.77;;;;;;;26.66;44.85;100316.87;1816228;77;21167;-71
2021/05/25 10:11:46;;;;;;;4.10;1.60;;;;;;;26.73;44.59;100322.63;1820284;76;21070;-70
2021/05/25 10:14:14;;;;;;;1.80;1.70;;;;;;;26.78;44.54;100316.67;1843324;77;21739;-68
2021/05/25 10:16:47;;;;;;;2.52;1.95;;;;;;;26.83;44.46;100309.91;1801552;78;21566;-69
2021/05/25 10:19:26;;;;;;;2.37;2.00;;;;;;;26.88;44.49;100314.56;1834287;76;21086;-68
2021/05/25 10:21:44;;;;;;;2.77;1.67;;;;;;;26.93;44.35;100300.16;1824066;76;21094;-68
2021/05/25 10:24:11;;;;;;;2.65;1.87;;;;;;;26.97;44.11;100311.63;1823274;77;21023;-70
2021/05/25 10:26:37;;;;;;;2.20;2.00;;;;;;;27.02;43.89;100310.31;1819736;77;21664;-70
2021/05/25 10:29:06;;;;;;;2.60;1.70;;;;;;;27.06;43.84;100298.30;1820377;76;21107;-69
2021/05/25 10:31:40;;;;;;;3.70;2.05;;;;;;;27.10;43.68;100303.53;1832115;77;21039;-71
2021/05/25 10:34:23;;;;;;;4.17;3.40;;;;;;;27.15;43.49;100298.09;1826069;77;21603;-69
2021/05/25 10:36:53;;;;;;;6.22;5.25;;;;;;;27.19;43.50;100300.56;1814631;77;21043;-74
2021/05/25 10:39:37;;;;;;;48.20;23.67;;;;;;;27.22;43.40;100293.22;1833419;76;21590;-73
2021/05/25 10:42:22;;;;;;;60.48;30.52;;;;;;;27.25;42.56;100303.65;1822224;76;21074;-75
2021/05/25 10:45:17;;;;;;;53.17;29.02;;;;;;;27.29;41.87;100291.64;1822799;76;21594;-74
2021/05/25 10:48:08;;;;;;;44.63;22.65;;;;;;;27.31;41.95;100283.19;1833311;76;21031;-74
2021/05/25 10:50:44;;;;;;;37.38;19.62;;;;;;;27.34;41.48;100278.58;1837572;75;21121;-75
2021/05/25 10:53:09;;;;;;;31.65;15.55;;;;;;;27.37;41.13;100275.30;1844657;76;21562;-74
2021/05/25 10:55:46;;;;;;;26.65;14.23;;;;;;;27.40;40.93;100280.23;1844222;75;22151;-82
2021/05/25 10:58:33;;;;;;;18.07;10.28;;;;;;;27.45;40.60;100292.55;1840163;76;20941;-78
2021/05/25 11:01:06;;;;;;;19.17;9.18;;;;;;;27.49;39.81;100275.06;1830785;75;21605;-76
2021/05/25 11:03:32;;;;;;;12.25;6.97;;;;;;;27.52;39.73;100282.73;1843698;75;21111;-77
2021/05/25 11:06:05;;;;;;;15.18;7.62;;;;;;;27.55;39.44;100273.47;1836335;75;21083;-78
2021/05/25 11:08:40;;;;;;;14.15;7.72;;;;;;;27.59;39.91;100256.83;1838001;76;21601;-76
2021/05/25 11:11:15;;;;;;;8.93;5.30;;;;;;;27.64;39.57;100250.55;1841996;75;21028;-78
2021/05/25 11:13:47;;;;;;;10.10;5.55;;;;;;;27.69;38.98;100264.23;1844167;75;21393;-78
2021/05/25 11:16:28;;;;;;;6.40;4.12;;;;;;;27.72;39.21;100256.03;1836401;75;21524;-78
2021/05/25 11:19:09;;;;;;;6.25;3.92;;;;;;;27.77;38.78;100255.50;1832183;76;21235;-78
2021/05/25 11:24:35;;;;;;;4.92;3.12;;;;;;;27.87;38.45;100249.23;1844034;75;21645;-74
2021/05/25 11:27:07;;;;;;;;;;;;;;;27.92;38.30;100238.92;1839698;76;21126;-71
2021/05/25 11:29:52;;;;;;;4.45;2.65;;;;;;;27.96;37.59;100232.63;1843549;75;20638;-73
2021/05/25 11:32:20;;;;;;;3.55;2.85;;;;;;;27.93;37.84;100242.75;1837882;75;21078;-71
2021/05/25 11:35:05;;;;;;;4.65;2.10;;;;;;;27.99;37.71;100245.75;1838720;75;21059;-73
2021/05/25 11:37:35;;;;;;;3.80;1.85;;;;;;;28.03;37.16;100235.92;1837192;75;21079;-72
2021/05/25 11:40:04;;;;;;;1.72;1.50;;;;;;;28.08;36.61;100226.09;1836886;75;21080;-72